Terminal Aerodrome Forecast
Issued by NWS

Home | Current Version | Previous Version | Text Only | Print | Product List | Glossary On
Versions: 1 2 3 4 5 6 7 8 9 10 11 12 13 14 15 16 17 18 19
000
FTUS43 KLSX 262340
TAFUIN
TAF
KUIN 262340Z 2700/2724 08005KT P6SM VCSH SCT020 BKN080
     FM270300 11006KT P6SM VCTS BKN035CB
     FM270800 13005KT P6SM SCT050 BKN120
     FM271500 20007KT P6SM SCT040 BKN120=

USA.gov is the U.S. government's official web portal to all federal, state and local government web resources and services.